sensor_id;sensor_type;location;lat;lon;timestamp;temperature;humidity
19552;DHT22;9921;47.186;9.778;2023-05-07T00:02:25;15.60;99.90
19552;DHT22;9921;47.186;9.778;2023-05-07T00:04:52;15.60;99.90
19552;DHT22;9921;47.186;9.778;2023-05-07T00:07:19;15.60;99.90
19552;DHT22;9921;47.186;9.778;2023-05-07T00:09:46;15.50;99.90
19552;DHT22;9921;47.186;9.778;2023-05-07T00:12:12;15.50;99.90
19552;DHT22;9921;47.186;9.778;2023-05-07T00:14:39;15.50;99.90
19552;DHT22;9921;47.186;9.778;2023-05-07T00:17:07;15.50;99.90
19552;DHT22;9921;47.186;9.778;2023-05-07T00:19:34;15.40;99.90
19552;DHT22;9921;47.186;9.778;2023-05-07T00:22:01;15.40;99.90
19552;DHT22;9921;47.186;9.778;2023-05-07T00:24:28;15.30;99.90
19552;DHT22;9921;47.186;9.778;2023-05-07T00:26:55;15.30;99.90
19552;DHT22;9921;47.186;9.778;2023-05-07T00:29:23;15.30;99.90
19552;DHT22;9921;47.186;9.778;2023-05-07T00:31:50;15.30;99.90
19552;DHT22;9921;47.186;9.778;2023-05-07T00:34:20;15.20;99.90
19552;DHT22;9921;47.186;9.778;2023-05-07T00:36:47;15.10;99.90
19552;DHT22;9921;47.186;9.778;2023-05-07T00:39:14;15.00;99.90
19552;DHT22;9921;47.186;9.778;2023-05-07T00:41:41;14.90;99.90
19552;DHT22;9921;47.186;9.778;2023-05-07T00:44:08;14.90;99.90
19552;DHT22;9921;47.186;9.778;2023-05-07T00:46:35;14.80;99.90
19552;DHT22;9921;47.186;9.778;2023-05-07T00:49:02;14.80;99.90
19552;DHT22;9921;47.186;9.778;2023-05-07T00:51:30;14.80;99.90
19552;DHT22;9921;47.186;9.778;2023-05-07T00:53:57;14.50;99.90
19552;DHT22;9921;47.186;9.778;2023-05-07T00:56:24;14.40;99.90
19552;DHT22;9921;47.186;9.778;2023-05-07T00:58:51;14.40;99.90
19552;DHT22;9921;47.186;9.778;2023-05-07T01:01:18;14.40;99.90
19552;DHT22;9921;47.186;9.778;2023-05-07T01:03:45;14.50;99.90
19552;DHT22;9921;47.186;9.778;2023-05-07T01:06:13;14.60;99.90
19552;DHT22;9921;47.186;9.778;2023-05-07T01:08:44;14.70;99.90
19552;DHT22;9921;47.186;9.778;2023-05-07T01:11:11;14.70;99.90
19552;DHT22;9921;47.186;9.778;2023-05-07T01:13:39;14.60;99.90
19552;DHT22;9921;47.186;9.778;2023-05-07T01:16:07;14.60;99.90
19552;DHT22;9921;47.186;9.778;2023-05-07T01:18:34;14.60;99.90
19552;DHT22;9921;47.186;9.778;2023-05-07T01:21:02;14.60;99.90
19552;DHT22;9921;47.186;9.778;2023-05-07T01:23:33;14.50;99.90
19552;DHT22;9921;47.186;9.778;2023-05-07T01:26:00;14.60;99.90
19552;DHT22;9921;47.186;9.778;2023-05-07T01:28:27;14.60;99.90
19552;DHT22;9921;47.186;9.778;2023-05-07T01:30:56;14.50;99.90
19552;DHT22;9921;47.186;9.778;2023-05-07T01:33:26;14.40;99.90
19552;DHT22;9921;47.186;9.778;2023-05-07T01:35:54;14.40;99.90
19552;DHT22;9921;47.186;9.778;2023-05-07T01:38:22;14.30;99.90
19552;DHT22;9921;47.186;9.778;2023-05-07T01:40:51;14.30;99.90
19552;DHT22;9921;47.186;9.778;2023-05-07T01:43:19;14.20;99.90
19552;DHT22;9921;47.186;9.778;2023-05-07T01:45:46;14.10;99.90
19552;DHT22;9921;47.186;9.778;2023-05-07T01:48:14;13.90;99.90
19552;DHT22;9921;47.186;9.778;2023-05-07T01:50:43;14.00;99.90
19552;DHT22;9921;47.186;9.778;2023-05-07T01:53:09;14.00;99.90
19552;DHT22;9921;47.186;9.778;2023-05-07T01:55:36;14.10;99.90
19552;DHT22;9921;47.186;9.778;2023-05-07T01:58:04;14.10;99.90
19552;DHT22;9921;47.186;9.778;2023-05-07T02:00:31;14.00;99.90
19552;DHT22;9921;47.186;9.778;2023-05-07T02:02:58;14.00;99.90
19552;DHT22;9921;47.186;9.778;2023-05-07T02:05:26;14.10;99.90
19552;DHT22;9921;47.186;9.778;2023-05-07T02:07:53;14.10;99.90
19552;DHT22;9921;47.186;9.778;2023-05-07T02:10:19;14.20;99.90
19552;DHT22;9921;47.186;9.778;2023-05-07T02:12:46;14.30;99.90
19552;DHT22;9921;47.186;9.778;2023-05-07T02:15:14;14.30;99.90
19552;DHT22;9921;47.186;9.778;2023-05-07T02:17:59;14.30;99.90
19552;DHT22;9921;47.186;9.778;2023-05-07T02:20:26;14.20;99.90
19552;DHT22;9921;47.186;9.778;2023-05-07T02:22:53;14.10;99.90
19552;DHT22;9921;47.186;9.778;2023-05-07T02:25:20;14.10;99.90
19552;DHT22;9921;47.186;9.778;2023-05-07T02:27:47;14.10;99.90
19552;DHT22;9921;47.186;9.778;2023-05-07T02:30:15;14.00;99.90
19552;DHT22;9921;47.186;9.778;2023-05-07T02:32:42;14.00;99.90
19552;DHT22;9921;47.186;9.778;2023-05-07T02:35:09;14.00;99.90
19552;DHT22;9921;47.186;9.778;2023-05-07T02:37:36;14.00;99.90
19552;DHT22;9921;47.186;9.778;2023-05-07T02:40:04;13.90;99.90
19552;DHT22;9921;47.186;9.778;2023-05-07T02:42:31;13.80;99.90
19552;DHT22;9921;47.186;9.778;2023-05-07T02:44:58;13.80;99.90
19552;DHT22;9921;47.186;9.778;2023-05-07T02:47:26;13.80;99.90
19552;DHT22;9921;47.186;9.778;2023-05-07T02:49:54;13.80;99.90
19552;DHT22;9921;47.186;9.778;2023-05-07T02:52:21;13.70;99.90
19552;DHT22;9921;47.186;9.778;2023-05-07T02:54:47;13.70;99.90
19552;DHT22;9921;47.186;9.778;2023-05-07T02:57:15;13.90;99.90
19552;DHT22;9921;47.186;9.778;2023-05-07T02:59:42;14.00;99.90
19552;DHT22;9921;47.186;9.778;2023-05-07T03:02:09;14.10;99.90
19552;DHT22;9921;47.186;9.778;2023-05-07T03:04:38;14.10;99.90
19552;DHT22;9921;47.186;9.778;2023-05-07T03:07:05;14.00;99.90
19552;DHT22;9921;47.186;9.778;2023-05-07T03:09:32;14.00;99.90
19552;DHT22;9921;47.186;9.778;2023-05-07T03:11:58;14.10;99.90
19552;DHT22;9921;47.186;9.778;2023-05-07T03:14:27;14.00;99.90
19552;DHT22;9921;47.186;9.778;2023-05-07T03:16:54;13.80;99.90
19552;DHT22;9921;47.186;9.778;2023-05-07T03:19:20;13.70;99.90
19552;DHT22;9921;47.186;9.778;2023-05-07T03:21:49;13.70;99.90
19552;DHT22;9921;47.186;9.778;2023-05-07T03:24:15;13.80;99.90
19552;DHT22;9921;47.186;9.778;2023-05-07T03:26:42;13.70;99.90
19552;DHT22;9921;47.186;9.778;2023-05-07T03:29:09;13.70;99.90
19552;DHT22;9921;47.186;9.778;2023-05-07T03:31:36;13.70;99.90
19552;DHT22;9921;47.186;9.778;2023-05-07T03:34:03;13.70;99.90
19552;DHT22;9921;47.186;9.778;2023-05-07T03:36:30;13.80;99.90
19552;DHT22;9921;47.186;9.778;2023-05-07T03:38:58;13.70;99.90
19552;DHT22;9921;47.186;9.778;2023-05-07T03:41:25;13.60;99.90
19552;DHT22;9921;47.186;9.778;2023-05-07T03:43:52;13.50;99.90
19552;DHT22;9921;47.186;9.778;2023-05-07T03:46:19;13.40;99.90
19552;DHT22;9921;47.186;9.778;2023-05-07T03:48:46;13.30;99.90
19552;DHT22;9921;47.186;9.778;2023-05-07T03:51:13;13.30;99.90
19552;DHT22;9921;47.186;9.778;2023-05-07T03:53:40;13.20;99.90
19552;DHT22;9921;47.186;9.778;2023-05-07T03:56:08;13.30;99.90
19552;DHT22;9921;47.186;9.778;2023-05-07T03:58:35;13.40;99.90
19552;DHT22;9921;47.186;9.778;2023-05-07T04:01:02;13.30;99.90
19552;DHT22;9921;47.186;9.778;2023-05-07T04:03:29;13.10;99.90
19552;DHT22;9921;47.186;9.778;2023-05-07T04:05:56;13.10;99.90
19552;DHT22;9921;47.186;9.778;2023-05-07T04:08:23;13.20;99.90
19552;DHT22;9921;47.186;9.778;2023-05-07T04:10:54;13.30;99.90
19552;DHT22;9921;47.186;9.778;2023-05-07T04:13:22;13.30;99.90
19552;DHT22;9921;47.186;9.778;2023-05-07T04:15:50;13.20;99.90
19552;DHT22;9921;47.186;9.778;2023-05-07T04:18:16;13.20;99.90
19552;DHT22;9921;47.186;9.778;2023-05-07T04:20:43;13.30;99.90
19552;DHT22;9921;47.186;9.778;2023-05-07T04:23:10;13.20;99.90
19552;DHT22;9921;47.186;9.778;2023-05-07T04:25:37;13.40;99.90
19552;DHT22;9921;47.186;9.778;2023-05-07T04:28:04;13.40;99.90
19552;DHT22;9921;47.186;9.778;2023-05-07T04:30:32;13.40;99.90
19552;DHT22;9921;47.186;9.778;2023-05-07T04:32:59;13.30;99.90
19552;DHT22;9921;47.186;9.778;2023-05-07T04:35:26;13.40;99.90
19552;DHT22;9921;47.186;9.778;2023-05-07T04:37:53;13.40;99.90
19552;DHT22;9921;47.186;9.778;2023-05-07T04:40:20;13.40;99.90
19552;DHT22;9921;47.186;9.778;2023-05-07T04:42:47;13.10;99.90
19552;DHT22;9921;47.186;9.778;2023-05-07T04:45:14;13.10;99.90
19552;DHT22;9921;47.186;9.778;2023-05-07T04:47:42;13.10;99.90
19552;DHT22;9921;47.186;9.778;2023-05-07T04:50:09;13.10;99.90
19552;DHT22;9921;47.186;9.778;2023-05-07T04:52:37;13.20;99.90
19552;DHT22;9921;47.186;9.778;2023-05-07T04:55:04;13.40;99.90
19552;DHT22;9921;47.186;9.778;2023-05-07T04:57:31;13.40;99.90
19552;DHT22;9921;47.186;9.778;2023-05-07T04:59:58;13.30;99.90
19552;DHT22;9921;47.186;9.778;2023-05-07T05:02:25;13.30;99.90
19552;DHT22;9921;47.186;9.778;2023-05-07T05:04:53;13.40;99.90
19552;DHT22;9921;47.186;9.778;2023-05-07T05:07:20;13.40;99.90
19552;DHT22;9921;47.186;9.778;2023-05-07T05:09:47;13.60;99.90
19552;DHT22;9921;47.186;9.778;2023-05-07T05:12:13;13.70;99.90
19552;DHT22;9921;47.186;9.778;2023-05-07T05:14:41;13.70;99.90
19552;DHT22;9921;47.186;9.778;2023-05-07T05:17:08;13.80;99.90
19552;DHT22;9921;47.186;9.778;2023-05-07T05:19:35;13.90;99.90
19552;DHT22;9921;47.186;9.778;2023-05-07T05:22:03;14.00;99.90
19552;DHT22;9921;47.186;9.778;2023-05-07T05:24:30;14.20;99.90
19552;DHT22;9921;47.186;9.778;2023-05-07T05:26:57;14.20;99.90
19552;DHT22;9921;47.186;9.778;2023-05-07T05:29:25;14.30;99.90
19552;DHT22;9921;47.186;9.778;2023-05-07T05:31:52;14.30;99.90
19552;DHT22;9921;47.186;9.778;2023-05-07T05:34:19;14.10;99.90
19552;DHT22;9921;47.186;9.778;2023-05-07T05:36:47;14.00;99.90
19552;DHT22;9921;47.186;9.778;2023-05-07T05:39:15;14.00;99.90
19552;DHT22;9921;47.186;9.778;2023-05-07T05:41:42;13.90;99.90
19552;DHT22;9921;47.186;9.778;2023-05-07T05:44:09;13.90;99.90
19552;DHT22;9921;47.186;9.778;2023-05-07T05:46:35;14.00;99.90
19552;DHT22;9921;47.186;9.778;2023-05-07T05:49:02;14.20;99.90
19552;DHT22;9921;47.186;9.778;2023-05-07T05:51:29;14.20;99.90
19552;DHT22;9921;47.186;9.778;2023-05-07T05:53:56;14.20;99.90
19552;DHT22;9921;47.186;9.778;2023-05-07T05:56:24;14.40;99.90
19552;DHT22;9921;47.186;9.778;2023-05-07T05:58:51;14.60;99.90
19552;DHT22;9921;47.186;9.778;2023-05-07T06:01:18;14.70;99.90
19552;DHT22;9921;47.186;9.778;2023-05-07T06:03:45;14.80;99.90
19552;DHT22;9921;47.186;9.778;2023-05-07T06:06:12;14.90;99.90
19552;DHT22;9921;47.186;9.778;2023-05-07T06:08:40;15.00;99.90
19552;DHT22;9921;47.186;9.778;2023-05-07T06:11:07;15.10;99.90
19552;DHT22;9921;47.186;9.778;2023-05-07T06:13:35;15.10;99.90
19552;DHT22;9921;47.186;9.778;2023-05-07T06:16:02;14.90;99.90
19552;DHT22;9921;47.186;9.778;2023-05-07T06:18:29;15.00;99.90
19552;DHT22;9921;47.186;9.778;2023-05-07T06:20:56;15.10;99.90
19552;DHT22;9921;47.186;9.778;2023-05-07T06:23:23;15.20;99.90
19552;DHT22;9921;47.186;9.778;2023-05-07T06:25:50;15.30;99.90
19552;DHT22;9921;47.186;9.778;2023-05-07T06:28:17;15.40;99.90
19552;DHT22;9921;47.186;9.778;2023-05-07T06:30:45;15.50;99.90
19552;DHT22;9921;47.186;9.778;2023-05-07T06:33:12;15.50;99.90
19552;DHT22;9921;47.186;9.778;2023-05-07T06:35:39;15.40;99.90
19552;DHT22;9921;47.186;9.778;2023-05-07T06:38:06;15.40;99.90
19552;DHT22;9921;47.186;9.778;2023-05-07T06:40:33;15.50;99.90
19552;DHT22;9921;47.186;9.778;2023-05-07T06:42:59;15.60;99.90
19552;DHT22;9921;47.186;9.778;2023-05-07T06:45:26;15.90;99.90
19552;DHT22;9921;47.186;9.778;2023-05-07T06:47:54;16.10;99.90
19552;DHT22;9921;47.186;9.778;2023-05-07T06:50:21;16.30;99.90
19552;DHT22;9921;47.186;9.778;2023-05-07T06:52:48;16.50;99.90
19552;DHT22;9921;47.186;9.778;2023-05-07T06:55:15;16.60;99.90
19552;DHT22;9921;47.186;9.778;2023-05-07T06:57:42;16.70;99.90
19552;DHT22;9921;47.186;9.778;2023-05-07T07:00:09;16.80;99.90
19552;DHT22;9921;47.186;9.778;2023-05-07T07:02:36;17.00;99.90
19552;DHT22;9921;47.186;9.778;2023-05-07T07:05:06;17.20;99.90
19552;DHT22;9921;47.186;9.778;2023-05-07T07:07:33;17.30;99.90
19552;DHT22;9921;47.186;9.778;2023-05-07T07:10:00;17.40;99.90
19552;DHT22;9921;47.186;9.778;2023-05-07T07:12:27;17.50;99.90
19552;DHT22;9921;47.186;9.778;2023-05-07T07:14:55;17.60;99.90
19552;DHT22;9921;47.186;9.778;2023-05-07T07:17:22;17.70;99.90
19552;DHT22;9921;47.186;9.778;2023-05-07T07:19:49;17.80;99.90
19552;DHT22;9921;47.186;9.778;2023-05-07T07:22:17;17.90;99.90
19552;DHT22;9921;47.186;9.778;2023-05-07T07:24:43;18.00;99.90
19552;DHT22;9921;47.186;9.778;2023-05-07T07:27:10;18.00;99.90
19552;DHT22;9921;47.186;9.778;2023-05-07T07:29:37;17.60;99.90
19552;DHT22;9921;47.186;9.778;2023-05-07T07:32:04;17.30;99.90
19552;DHT22;9921;47.186;9.778;2023-05-07T07:34:31;17.30;99.90
19552;DHT22;9921;47.186;9.778;2023-05-07T07:36:58;17.30;99.90
19552;DHT22;9921;47.186;9.778;2023-05-07T07:39:32;17.40;99.90
19552;DHT22;9921;47.186;9.778;2023-05-07T07:41:59;17.20;99.90
19552;DHT22;9921;47.186;9.778;2023-05-07T07:44:25;17.10;99.90
19552;DHT22;9921;47.186;9.778;2023-05-07T07:46:52;17.10;99.90
19552;DHT22;9921;47.186;9.778;2023-05-07T07:49:19;17.00;99.90
19552;DHT22;9921;47.186;9.778;2023-05-07T07:51:46;17.10;99.90
19552;DHT22;9921;47.186;9.778;2023-05-07T07:54:13;17.30;99.90
19552;DHT22;9921;47.186;9.778;2023-05-07T07:56:41;17.40;99.90
19552;DHT22;9921;47.186;9.778;2023-05-07T07:59:08;17.50;99.90
19552;DHT22;9921;47.186;9.778;2023-05-07T08:01:35;17.90;99.90
19552;DHT22;9921;47.186;9.778;2023-05-07T08:04:01;18.10;99.90
19552;DHT22;9921;47.186;9.778;2023-05-07T08:06:30;18.30;99.90
19552;DHT22;9921;47.186;9.778;2023-05-07T08:08:57;18.40;99.90
19552;DHT22;9921;47.186;9.778;2023-05-07T08:11:24;18.60;99.90
19552;DHT22;9921;47.186;9.778;2023-05-07T08:13:53;18.60;99.90
19552;DHT22;9921;47.186;9.778;2023-05-07T08:16:20;18.60;99.90
19552;DHT22;9921;47.186;9.778;2023-05-07T08:18:47;18.50;99.90
19552;DHT22;9921;47.186;9.778;2023-05-07T08:21:14;18.50;99.90
19552;DHT22;9921;47.186;9.778;2023-05-07T08:23:41;18.50;99.90
19552;DHT22;9921;47.186;9.778;2023-05-07T08:26:08;18.50;99.90
19552;DHT22;9921;47.186;9.778;2023-05-07T08:28:35;18.40;99.90
19552;DHT22;9921;47.186;9.778;2023-05-07T08:31:03;18.40;99.90
19552;DHT22;9921;47.186;9.778;2023-05-07T08:33:30;18.30;99.90
19552;DHT22;9921;47.186;9.778;2023-05-07T08:35:57;18.20;99.90
19552;DHT22;9921;47.186;9.778;2023-05-07T08:38:24;18.10;99.90
19552;DHT22;9921;47.186;9.778;2023-05-07T08:40:51;18.00;99.90
19552;DHT22;9921;47.186;9.778;2023-05-07T08:43:18;17.80;99.90
19552;DHT22;9921;47.186;9.778;2023-05-07T08:45:47;17.40;99.90
19552;DHT22;9921;47.186;9.778;2023-05-07T08:48:17;17.00;99.90
19552;DHT22;9921;47.186;9.778;2023-05-07T08:50:44;17.00;99.90
19552;DHT22;9921;47.186;9.778;2023-05-07T08:53:12;16.90;99.90
19552;DHT22;9921;47.186;9.778;2023-05-07T08:55:39;16.90;99.90
19552;DHT22;9921;47.186;9.778;2023-05-07T08:58:06;16.80;99.90
19552;DHT22;9921;47.186;9.778;2023-05-07T09:00:33;16.90;99.90
19552;DHT22;9921;47.186;9.778;2023-05-07T09:03:00;16.80;99.90
19552;DHT22;9921;47.186;9.778;2023-05-07T09:05:29;16.60;99.90
19552;DHT22;9921;47.186;9.778;2023-05-07T09:07:59;16.20;99.90
19552;DHT22;9921;47.186;9.778;2023-05-07T09:10:26;16.00;99.90
19552;DHT22;9921;47.186;9.778;2023-05-07T09:12:53;16.10;99.90
19552;DHT22;9921;47.186;9.778;2023-05-07T09:15:20;16.30;99.90
19552;DHT22;9921;47.186;9.778;2023-05-07T09:17:47;16.40;99.90
19552;DHT22;9921;47.186;9.778;2023-05-07T09:20:14;16.40;99.90
19552;DHT22;9921;47.186;9.778;2023-05-07T09:22:42;16.50;99.90
19552;DHT22;9921;47.186;9.778;2023-05-07T09:25:09;16.60;99.90
19552;DHT22;9921;47.186;9.778;2023-05-07T09:27:36;16.60;99.90
19552;DHT22;9921;47.186;9.778;2023-05-07T09:30:04;16.60;99.90
19552;DHT22;9921;47.186;9.778;2023-05-07T09:32:35;16.60;99.90
19552;DHT22;9921;47.186;9.778;2023-05-07T09:35:02;16.60;99.90
19552;DHT22;9921;47.186;9.778;2023-05-07T09:37:31;16.60;99.90
19552;DHT22;9921;47.186;9.778;2023-05-07T09:39:59;16.60;99.90
19552;DHT22;9921;47.186;9.778;2023-05-07T09:42:27;16.40;99.90
19552;DHT22;9921;47.186;9.778;2023-05-07T09:44:54;16.20;99.90
19552;DHT22;9921;47.186;9.778;2023-05-07T09:47:23;15.90;99.90
19552;DHT22;9921;47.186;9.778;2023-05-07T09:49:56;15.80;99.90
19552;DHT22;9921;47.186;9.778;2023-05-07T09:52:24;15.80;99.90
19552;DHT22;9921;47.186;9.778;2023-05-07T09:54:55;16.00;99.90
19552;DHT22;9921;47.186;9.778;2023-05-07T09:57:26;16.10;99.90
19552;DHT22;9921;47.186;9.778;2023-05-07T09:59:54;16.20;99.90
19552;DHT22;9921;47.186;9.778;2023-05-07T10:02:23;16.20;99.90
19552;DHT22;9921;47.186;9.778;2023-05-07T10:04:52;16.30;99.90
19552;DHT22;9921;47.186;9.778;2023-05-07T10:07:20;16.40;99.90
19552;DHT22;9921;47.186;9.778;2023-05-07T10:09:49;16.30;99.90
19552;DHT22;9921;47.186;9.778;2023-05-07T10:12:17;16.30;99.90
19552;DHT22;9921;47.186;9.778;2023-05-07T10:14:46;16.40;99.90
19552;DHT22;9921;47.186;9.778;2023-05-07T10:17:16;16.60;99.90
19552;DHT22;9921;47.186;9.778;2023-05-07T10:19:44;16.70;99.90
19552;DHT22;9921;47.186;9.778;2023-05-07T10:22:12;16.60;99.90
19552;DHT22;9921;47.186;9.778;2023-05-07T10:24:40;16.50;99.90
19552;DHT22;9921;47.186;9.778;2023-05-07T10:27:10;16.40;99.90
19552;DHT22;9921;47.186;9.778;2023-05-07T10:29:42;16.30;99.90
19552;DHT22;9921;47.186;9.778;2023-05-07T10:32:25;16.20;99.90
19552;DHT22;9921;47.186;9.778;2023-05-07T10:34:57;16.30;99.90
19552;DHT22;9921;47.186;9.778;2023-05-07T10:37:25;16.30;99.90
19552;DHT22;9921;47.186;9.778;2023-05-07T10:39:52;16.40;99.90
19552;DHT22;9921;47.186;9.778;2023-05-07T10:42:19;16.70;99.90
19552;DHT22;9921;47.186;9.778;2023-05-07T10:44:46;16.90;99.90
19552;DHT22;9921;47.186;9.778;2023-05-07T10:47:15;17.20;99.90
19552;DHT22;9921;47.186;9.778;2023-05-07T10:50:20;17.60;99.90
19552;DHT22;9921;47.186;9.778;2023-05-07T10:53:20;18.30;99.90
19552;DHT22;9921;47.186;9.778;2023-05-07T10:55:48;19.00;99.90
19552;DHT22;9921;47.186;9.778;2023-05-07T10:58:25;19.70;99.90
19552;DHT22;9921;47.186;9.778;2023-05-07T11:00:56;20.60;99.90
19552;DHT22;9921;47.186;9.778;2023-05-07T11:03:24;21.90;99.90
19552;DHT22;9921;47.186;9.778;2023-05-07T11:06:09;23.30;99.90
19552;DHT22;9921;47.186;9.778;2023-05-07T11:08:55;24.60;99.90
19552;DHT22;9921;47.186;9.778;2023-05-07T11:11:52;25.90;99.90
19552;DHT22;9921;47.186;9.778;2023-05-07T11:14:42;27.10;99.90
19552;DHT22;9921;47.186;9.778;2023-05-07T11:17:10;28.30;99.90
19552;DHT22;9921;47.186;9.778;2023-05-07T11:19:51;29.10;99.90
19552;DHT22;9921;47.186;9.778;2023-05-07T11:22:36;30.70;99.90
19552;DHT22;9921;47.186;9.778;2023-05-07T11:25:05;32.20;99.90
19552;DHT22;9921;47.186;9.778;2023-05-07T11:27:33;33.30;99.90
19552;DHT22;9921;47.186;9.778;2023-05-07T11:30:00;32.90;98.50
19552;DHT22;9921;47.186;9.778;2023-05-07T11:32:29;32.30;97.50
19552;DHT22;9921;47.186;9.778;2023-05-07T11:34:58;32.50;96.40
19552;DHT22;9921;47.186;9.778;2023-05-07T11:37:27;32.90;93.90
19552;DHT22;9921;47.186;9.778;2023-05-07T11:40:03;33.20;94.60
19552;DHT22;9921;47.186;9.778;2023-05-07T11:42:32;33.70;93.30
19552;DHT22;9921;47.186;9.778;2023-05-07T11:44:59;33.50;91.60
19552;DHT22;9921;47.186;9.778;2023-05-07T11:47:29;33.70;89.70
19552;DHT22;9921;47.186;9.778;2023-05-07T11:50:03;33.80;87.90
19552;DHT22;9921;47.186;9.778;2023-05-07T11:52:30;33.40;85.10
19552;DHT22;9921;47.186;9.778;2023-05-07T11:54:58;33.40;87.00
19552;DHT22;9921;47.186;9.778;2023-05-07T11:57:26;33.50;84.60
19552;DHT22;9921;47.186;9.778;2023-05-07T11:59:53;34.40;82.00
19552;DHT22;9921;47.186;9.778;2023-05-07T12:02:20;34.80;76.70
19552;DHT22;9921;47.186;9.778;2023-05-07T12:04:47;35.40;73.50
19552;DHT22;9921;47.186;9.778;2023-05-07T12:07:16;35.70;73.30
19552;DHT22;9921;47.186;9.778;2023-05-07T12:09:44;36.50;75.30
19552;DHT22;9921;47.186;9.778;2023-05-07T12:12:11;36.90;70.90
19552;DHT22;9921;47.186;9.778;2023-05-07T12:14:41;37.00;67.40
19552;DHT22;9921;47.186;9.778;2023-05-07T12:17:09;36.40;65.00
19552;DHT22;9921;47.186;9.778;2023-05-07T12:19:37;35.70;65.00
19552;DHT22;9921;47.186;9.778;2023-05-07T12:22:04;35.10;70.60
19552;DHT22;9921;47.186;9.778;2023-05-07T12:24:43;34.70;69.50
19552;DHT22;9921;47.186;9.778;2023-05-07T12:27:10;34.00;64.50
19552;DHT22;9921;47.186;9.778;2023-05-07T12:29:37;33.10;65.70
19552;DHT22;9921;47.186;9.778;2023-05-07T12:32:06;32.60;73.00
19552;DHT22;9921;47.186;9.778;2023-05-07T12:34:33;32.20;73.20
19552;DHT22;9921;47.186;9.778;2023-05-07T12:37:02;31.70;72.10
19552;DHT22;9921;47.186;9.778;2023-05-07T12:39:29;31.50;72.80
19552;DHT22;9921;47.186;9.778;2023-05-07T12:41:58;31.10;71.60
19552;DHT22;9921;47.186;9.778;2023-05-07T12:44:28;30.80;76.50
19552;DHT22;9921;47.186;9.778;2023-05-07T12:46:55;30.70;73.20
19552;DHT22;9921;47.186;9.778;2023-05-07T12:49:23;31.00;74.10
19552;DHT22;9921;47.186;9.778;2023-05-07T12:51:50;31.00;74.40
19552;DHT22;9921;47.186;9.778;2023-05-07T12:54:27;30.80;76.20
19552;DHT22;9921;47.186;9.778;2023-05-07T12:57:01;30.50;78.00
19552;DHT22;9921;47.186;9.778;2023-05-07T12:59:33;30.10;78.30
19552;DHT22;9921;47.186;9.778;2023-05-07T13:02:00;29.80;75.90
19552;DHT22;9921;47.186;9.778;2023-05-07T13:04:27;29.70;76.60
19552;DHT22;9921;47.186;9.778;2023-05-07T13:06:53;29.50;75.20
19552;DHT22;9921;47.186;9.778;2023-05-07T13:09:20;29.70;73.40
19552;DHT22;9921;47.186;9.778;2023-05-07T13:11:47;29.50;77.00
19552;DHT22;9921;47.186;9.778;2023-05-07T13:14:15;29.30;79.30
19552;DHT22;9921;47.186;9.778;2023-05-07T13:16:42;28.90;78.10
19552;DHT22;9921;47.186;9.778;2023-05-07T13:19:09;28.60;80.00
19552;DHT22;9921;47.186;9.778;2023-05-07T13:21:36;28.10;79.10
19552;DHT22;9921;47.186;9.778;2023-05-07T13:24:03;27.80;80.10
19552;DHT22;9921;47.186;9.778;2023-05-07T13:26:31;27.50;83.80
19552;DHT22;9921;47.186;9.778;2023-05-07T13:28:58;27.30;83.30
19552;DHT22;9921;47.186;9.778;2023-05-07T13:31:26;27.10;85.70
19552;DHT22;9921;47.186;9.778;2023-05-07T13:33:53;27.00;84.60
19552;DHT22;9921;47.186;9.778;2023-05-07T13:36:21;27.00;84.50
19552;DHT22;9921;47.186;9.778;2023-05-07T13:38:48;26.90;87.70
19552;DHT22;9921;47.186;9.778;2023-05-07T13:41:15;26.80;90.40
19552;DHT22;9921;47.186;9.778;2023-05-07T13:43:42;26.70;89.60
19552;DHT22;9921;47.186;9.778;2023-05-07T13:46:09;26.70;90.60
19552;DHT22;9921;47.186;9.778;2023-05-07T13:48:37;26.60;90.90
19552;DHT22;9921;47.186;9.778;2023-05-07T13:51:04;26.50;91.30
19552;DHT22;9921;47.186;9.778;2023-05-07T13:53:31;26.40;91.50
19552;DHT22;9921;47.186;9.778;2023-05-07T13:55:58;26.30;91.40
19552;DHT22;9921;47.186;9.778;2023-05-07T13:58:25;26.30;91.30
19552;DHT22;9921;47.186;9.778;2023-05-07T14:00:51;26.30;91.80
19552;DHT22;9921;47.186;9.778;2023-05-07T14:03:18;26.20;91.50
19552;DHT22;9921;47.186;9.778;2023-05-07T14:05:46;26.00;91.80
19552;DHT22;9921;47.186;9.778;2023-05-07T14:08:13;25.90;91.50
19552;DHT22;9921;47.186;9.778;2023-05-07T14:10:40;25.80;92.60
19552;DHT22;9921;47.186;9.778;2023-05-07T14:13:07;25.60;91.60
19552;DHT22;9921;47.186;9.778;2023-05-07T14:15:34;25.50;93.90
19552;DHT22;9921;47.186;9.778;2023-05-07T14:18:03;25.30;93.70
19552;DHT22;9921;47.186;9.778;2023-05-07T14:20:30;25.30;93.90
19552;DHT22;9921;47.186;9.778;2023-05-07T14:22:59;25.30;94.50
19552;DHT22;9921;47.186;9.778;2023-05-07T14:25:25;25.40;93.80
19552;DHT22;9921;47.186;9.778;2023-05-07T14:27:52;25.30;93.30
19552;DHT22;9921;47.186;9.778;2023-05-07T14:30:19;25.30;92.80
19552;DHT22;9921;47.186;9.778;2023-05-07T14:32:48;25.40;94.30
19552;DHT22;9921;47.186;9.778;2023-05-07T14:35:15;25.50;92.80
19552;DHT22;9921;47.186;9.778;2023-05-07T14:37:42;25.50;92.10
19552;DHT22;9921;47.186;9.778;2023-05-07T14:40:11;25.40;93.10
19552;DHT22;9921;47.186;9.778;2023-05-07T14:42:38;25.30;93.00
19552;DHT22;9921;47.186;9.778;2023-05-07T14:45:06;25.30;93.30
19552;DHT22;9921;47.186;9.778;2023-05-07T14:47:33;25.30;92.40
19552;DHT22;9921;47.186;9.778;2023-05-07T14:50:00;25.30;93.00
19552;DHT22;9921;47.186;9.778;2023-05-07T14:52:27;25.30;92.50
19552;DHT22;9921;47.186;9.778;2023-05-07T14:54:54;25.30;93.80
19552;DHT22;9921;47.186;9.778;2023-05-07T14:57:22;25.30;93.40
19552;DHT22;9921;47.186;9.778;2023-05-07T14:59:49;25.20;93.00
19552;DHT22;9921;47.186;9.778;2023-05-07T15:02:16;25.00;93.30
19552;DHT22;9921;47.186;9.778;2023-05-07T15:04:43;24.90;92.60
19552;DHT22;9921;47.186;9.778;2023-05-07T15:07:12;24.80;93.90
19552;DHT22;9921;47.186;9.778;2023-05-07T15:09:40;24.60;94.80
19552;DHT22;9921;47.186;9.778;2023-05-07T15:12:07;24.50;95.40
19552;DHT22;9921;47.186;9.778;2023-05-07T15:14:35;24.30;96.20
19552;DHT22;9921;47.186;9.778;2023-05-07T15:17:02;24.10;96.50
19552;DHT22;9921;47.186;9.778;2023-05-07T15:19:29;23.80;98.30
19552;DHT22;9921;47.186;9.778;2023-05-07T15:21:57;23.60;99.50
19552;DHT22;9921;47.186;9.778;2023-05-07T15:24:25;23.40;99.70
19552;DHT22;9921;47.186;9.778;2023-05-07T15:26:52;23.20;99.90
19552;DHT22;9921;47.186;9.778;2023-05-07T15:29:19;22.90;99.90
19552;DHT22;9921;47.186;9.778;2023-05-07T15:31:47;22.70;99.90
19552;DHT22;9921;47.186;9.778;2023-05-07T15:34:14;22.50;99.90
19552;DHT22;9921;47.186;9.778;2023-05-07T15:36:42;22.30;99.90
19552;DHT22;9921;47.186;9.778;2023-05-07T15:39:08;22.20;99.90
19552;DHT22;9921;47.186;9.778;2023-05-07T15:41:36;22.10;99.90
19552;DHT22;9921;47.186;9.778;2023-05-07T15:44:03;21.90;99.90
19552;DHT22;9921;47.186;9.778;2023-05-07T15:46:30;21.70;99.90
19552;DHT22;9921;47.186;9.778;2023-05-07T15:49:01;21.50;99.90
19552;DHT22;9921;47.186;9.778;2023-05-07T15:51:29;21.40;99.90